sensor_id;sensor_type;location;lat;lon;timestamp;temperature;humidity
65408;DHT22;52017;51.230;-2.322;2022-07-29T00:02:07;17.90;52.00
65408;DHT22;52017;51.230;-2.322;2022-07-29T00:06:15;17.90;52.10
65408;DHT22;52017;51.230;-2.322;2022-07-29T00:09:58;17.80;54.00
65408;DHT22;52017;51.230;-2.322;2022-07-29T00:13:41;17.70;52.40
65408;DHT22;52017;51.230;-2.322;2022-07-29T00:17:37;17.60;52.60
65408;DHT22;52017;51.230;-2.322;2022-07-29T00:21:21;17.50;52.90
65408;DHT22;52017;51.230;-2.322;2022-07-29T00:25:06;17.50;53.20
65408;DHT22;52017;51.230;-2.322;2022-07-29T00:28:59;17.40;53.50
65408;DHT22;52017;51.230;-2.322;2022-07-29T00:33:10;17.30;53.60
65408;DHT22;52017;51.230;-2.322;2022-07-29T00:36:52;17.20;53.60
65408;DHT22;52017;51.230;-2.322;2022-07-29T00:40:41;17.10;53.80
65408;DHT22;52017;51.230;-2.322;2022-07-29T00:44:45;17.00;54.10
65408;DHT22;52017;51.230;-2.322;2022-07-29T00:48:37;17.00;54.20
65408;DHT22;52017;51.230;-2.322;2022-07-29T00:52:20;16.90;54.70
65408;DHT22;52017;51.230;-2.322;2022-07-29T00:56:16;16.90;54.70
65408;DHT22;52017;51.230;-2.322;2022-07-29T01:00:26;16.80;54.80
65408;DHT22;52017;51.230;-2.322;2022-07-29T01:04:13;16.70;57.10
65408;DHT22;52017;51.230;-2.322;2022-07-29T01:07:58;16.60;55.10
65408;DHT22;52017;51.230;-2.322;2022-07-29T01:11:41;16.60;55.40
65408;DHT22;52017;51.230;-2.322;2022-07-29T01:15:42;16.50;55.50
65408;DHT22;52017;51.230;-2.322;2022-07-29T01:19:52;16.40;56.90
65408;DHT22;52017;51.230;-2.322;2022-07-29T01:23:52;16.30;58.40
65408;DHT22;52017;51.230;-2.322;2022-07-29T01:32:19;16.20;58.10
65408;DHT22;52017;51.230;-2.322;2022-07-29T01:36:33;16.20;58.40
65408;DHT22;52017;51.230;-2.322;2022-07-29T01:40:19;16.20;58.10
65408;DHT22;52017;51.230;-2.322;2022-07-29T01:44:20;16.10;56.50
65408;DHT22;52017;51.230;-2.322;2022-07-29T01:48:21;16.20;57.20
65408;DHT22;52017;51.230;-2.322;2022-07-29T01:52:19;16.30;58.80
65408;DHT22;52017;51.230;-2.322;2022-07-29T01:56:32;16.30;57.20
65408;DHT22;52017;51.230;-2.322;2022-07-29T02:00:16;16.20;57.30
65408;DHT22;52017;51.230;-2.322;2022-07-29T02:04:06;16.20;56.80
65408;DHT22;52017;51.230;-2.322;2022-07-29T02:07:51;16.20;58.10
65408;DHT22;52017;51.230;-2.322;2022-07-29T02:11:35;16.20;57.30
65408;DHT22;52017;51.230;-2.322;2022-07-29T02:15:30;16.10;57.50
65408;DHT22;52017;51.230;-2.322;2022-07-29T02:19:14;16.10;58.70
65408;DHT22;52017;51.230;-2.322;2022-07-29T02:23:03;16.10;57.70
65408;DHT22;52017;51.230;-2.322;2022-07-29T02:26:53;16.10;58.10
65408;DHT22;52017;51.230;-2.322;2022-07-29T02:30:41;16.20;59.30
65408;DHT22;52017;51.230;-2.322;2022-07-29T02:34:25;16.10;58.80
65408;DHT22;52017;51.230;-2.322;2022-07-29T02:38:15;16.20;58.20
65408;DHT22;52017;51.230;-2.322;2022-07-29T02:42:17;16.10;58.50
65408;DHT22;52017;51.230;-2.322;2022-07-29T02:46:02;16.20;58.20
65408;DHT22;52017;51.230;-2.322;2022-07-29T02:50:20;16.20;58.40
65408;DHT22;52017;51.230;-2.322;2022-07-29T02:55:32;16.20;58.40
65408;DHT22;52017;51.230;-2.322;2022-07-29T02:59:10;16.20;60.20
65408;DHT22;52017;51.230;-2.322;2022-07-29T03:03:00;16.30;59.10
65408;DHT22;52017;51.230;-2.322;2022-07-29T03:06:44;16.20;58.80
65408;DHT22;52017;51.230;-2.322;2022-07-29T03:10:33;16.20;58.70
65408;DHT22;52017;51.230;-2.322;2022-07-29T03:14:20;16.20;59.20
65408;DHT22;52017;51.230;-2.322;2022-07-29T03:18:22;16.10;59.40
65408;DHT22;52017;51.230;-2.322;2022-07-29T03:22:07;16.10;60.80
65408;DHT22;52017;51.230;-2.322;2022-07-29T03:25:50;16.10;59.20
65408;DHT22;52017;51.230;-2.322;2022-07-29T03:29:36;16.10;59.20
65408;DHT22;52017;51.230;-2.322;2022-07-29T03:33:19;16.10;59.30
65408;DHT22;52017;51.230;-2.322;2022-07-29T03:37:01;16.00;59.40
65408;DHT22;52017;51.230;-2.322;2022-07-29T03:40:49;16.00;59.50
65408;DHT22;52017;51.230;-2.322;2022-07-29T03:44:37;16.00;59.80
65408;DHT22;52017;51.230;-2.322;2022-07-29T03:48:28;16.00;60.10
65408;DHT22;52017;51.230;-2.322;2022-07-29T03:52:13;16.00;59.90
65408;DHT22;52017;51.230;-2.322;2022-07-29T03:56:05;15.90;59.90
65408;DHT22;52017;51.230;-2.322;2022-07-29T04:00:03;15.80;60.00
65408;DHT22;52017;51.230;-2.322;2022-07-29T04:03:47;15.70;61.60
65408;DHT22;52017;51.230;-2.322;2022-07-29T04:07:29;15.70;60.30
65408;DHT22;52017;51.230;-2.322;2022-07-29T04:11:13;15.60;59.90
65408;DHT22;52017;51.230;-2.322;2022-07-29T04:14:58;15.60;60.10
65408;DHT22;52017;51.230;-2.322;2022-07-29T04:18:44;15.60;60.30
65408;DHT22;52017;51.230;-2.322;2022-07-29T04:22:34;15.50;60.70
65408;DHT22;52017;51.230;-2.322;2022-07-29T04:26:20;15.50;60.70
65408;DHT22;52017;51.230;-2.322;2022-07-29T04:30:07;15.50;60.70
65408;DHT22;52017;51.230;-2.322;2022-07-29T04:33:51;15.50;60.80
65408;DHT22;52017;51.230;-2.322;2022-07-29T04:37:35;15.50;60.90
65408;DHT22;52017;51.230;-2.322;2022-07-29T04:41:21;15.50;61.00
65408;DHT22;52017;51.230;-2.322;2022-07-29T04:45:26;15.50;61.40
65408;DHT22;52017;51.230;-2.322;2022-07-29T04:49:10;15.40;61.20
65408;DHT22;52017;51.230;-2.322;2022-07-29T04:57:12;15.40;61.30
65408;DHT22;52017;51.230;-2.322;2022-07-29T05:01:46;15.40;61.40
65408;DHT22;52017;51.230;-2.322;2022-07-29T05:05:46;15.40;63.00
65408;DHT22;52017;51.230;-2.322;2022-07-29T05:09:30;15.40;61.40
65408;DHT22;52017;51.230;-2.322;2022-07-29T05:13:15;15.40;61.50
65408;DHT22;52017;51.230;-2.322;2022-07-29T05:17:14;15.30;61.70
65408;DHT22;52017;51.230;-2.322;2022-07-29T05:21:20;15.40;61.70
65408;DHT22;52017;51.230;-2.322;2022-07-29T05:25:02;15.30;63.20
65408;DHT22;52017;51.230;-2.322;2022-07-29T05:28:54;15.40;61.80
65408;DHT22;52017;51.230;-2.322;2022-07-29T05:32:42;15.40;62.30
65408;DHT22;52017;51.230;-2.322;2022-07-29T05:42:09;15.60;63.10
65408;DHT22;52017;51.230;-2.322;2022-07-29T05:46:36;15.70;63.20
65408;DHT22;52017;51.230;-2.322;2022-07-29T05:50:52;15.80;63.10
65408;DHT22;52017;51.230;-2.322;2022-07-29T05:54:35;15.90;62.00
65408;DHT22;52017;51.230;-2.322;2022-07-29T05:58:18;16.00;62.00
65408;DHT22;52017;51.230;-2.322;2022-07-29T06:02:03;16.00;62.00
65408;DHT22;52017;51.230;-2.322;2022-07-29T06:05:49;16.10;62.40
65408;DHT22;52017;51.230;-2.322;2022-07-29T06:09:49;16.50;62.60
65408;DHT22;52017;51.230;-2.322;2022-07-29T06:13:32;16.90;62.30
65408;DHT22;52017;51.230;-2.322;2022-07-29T06:17:19;17.20;61.60
65408;DHT22;52017;51.230;-2.322;2022-07-29T06:21:15;17.40;61.30
65408;DHT22;52017;51.230;-2.322;2022-07-29T06:26:13;17.60;61.10
65408;DHT22;52017;51.230;-2.322;2022-07-29T06:30:46;18.10;60.50
65408;DHT22;52017;51.230;-2.322;2022-07-29T06:34:44;18.60;60.30
65408;DHT22;52017;51.230;-2.322;2022-07-29T06:38:30;19.10;60.00
65408;DHT22;52017;51.230;-2.322;2022-07-29T06:42:19;19.60;59.50
65408;DHT22;52017;51.230;-2.322;2022-07-29T06:46:05;20.10;58.50
65408;DHT22;52017;51.230;-2.322;2022-07-29T06:53:46;21.10;56.50
65408;DHT22;52017;51.230;-2.322;2022-07-29T06:58:25;21.60;56.30
65408;DHT22;52017;51.230;-2.322;2022-07-29T07:02:35;22.10;53.50
65408;DHT22;52017;51.230;-2.322;2022-07-29T07:06:23;22.60;53.80
65408;DHT22;52017;51.230;-2.322;2022-07-29T07:10:23;23.00;53.10
65408;DHT22;52017;51.230;-2.322;2022-07-29T07:14:07;23.30;51.80
65408;DHT22;52017;51.230;-2.322;2022-07-29T07:17:54;23.60;51.50
65408;DHT22;52017;51.230;-2.322;2022-07-29T07:21:39;23.90;51.30
65408;DHT22;52017;51.230;-2.322;2022-07-29T07:25:21;24.00;50.70
65408;DHT22;52017;51.230;-2.322;2022-07-29T07:29:03;24.40;50.20
65408;DHT22;52017;51.230;-2.322;2022-07-29T07:32:45;24.80;49.40
65408;DHT22;52017;51.230;-2.322;2022-07-29T07:36:27;25.10;49.00
65408;DHT22;52017;51.230;-2.322;2022-07-29T07:40:10;25.40;48.60
65408;DHT22;52017;51.230;-2.322;2022-07-29T07:43:59;25.70;48.20
65408;DHT22;52017;51.230;-2.322;2022-07-29T07:47:41;26.10;47.70
65408;DHT22;52017;51.230;-2.322;2022-07-29T07:51:24;26.30;47.10
65408;DHT22;52017;51.230;-2.322;2022-07-29T07:55:06;26.50;46.70
65408;DHT22;52017;51.230;-2.322;2022-07-29T07:58:48;26.80;46.40
65408;DHT22;52017;51.230;-2.322;2022-07-29T08:02:30;27.10;45.70
65408;DHT22;52017;51.230;-2.322;2022-07-29T08:06:13;27.40;44.90
65408;DHT22;52017;51.230;-2.322;2022-07-29T08:10:07;27.70;44.20
65408;DHT22;52017;51.230;-2.322;2022-07-29T08:13:49;28.00;44.00
65408;DHT22;52017;51.230;-2.322;2022-07-29T08:17:31;28.20;43.40
65408;DHT22;52017;51.230;-2.322;2022-07-29T08:21:16;28.60;42.90
65408;DHT22;52017;51.230;-2.322;2022-07-29T08:24:58;28.80;42.50
65408;DHT22;52017;51.230;-2.322;2022-07-29T08:28:51;29.00;42.10
65408;DHT22;52017;51.230;-2.322;2022-07-29T08:32:41;29.30;39.80
65408;DHT22;52017;51.230;-2.322;2022-07-29T08:36:35;29.80;40.50
65408;DHT22;52017;51.230;-2.322;2022-07-29T08:40:19;30.10;39.40
65408;DHT22;52017;51.230;-2.322;2022-07-29T08:44:15;30.50;38.90
65408;DHT22;52017;51.230;-2.322;2022-07-29T08:48:12;30.80;39.80
65408;DHT22;52017;51.230;-2.322;2022-07-29T08:51:56;31.10;37.40
65408;DHT22;52017;51.230;-2.322;2022-07-29T08:55:51;31.50;37.10
65408;DHT22;52017;51.230;-2.322;2022-07-29T08:59:40;31.80;36.70
65408;DHT22;52017;51.230;-2.322;2022-07-29T09:03:25;32.20;35.10
65408;DHT22;52017;51.230;-2.322;2022-07-29T09:07:09;32.60;35.00
65408;DHT22;52017;51.230;-2.322;2022-07-29T09:10:52;32.90;34.30
65408;DHT22;52017;51.230;-2.322;2022-07-29T09:14:39;33.10;33.90
65408;DHT22;52017;51.230;-2.322;2022-07-29T09:18:37;33.40;33.40
65408;DHT22;52017;51.230;-2.322;2022-07-29T09:22:31;33.60;32.40
65408;DHT22;52017;51.230;-2.322;2022-07-29T09:26:28;33.90;31.70
65408;DHT22;52017;51.230;-2.322;2022-07-29T09:30:14;34.10;31.30
65408;DHT22;52017;51.230;-2.322;2022-07-29T09:34:14;34.20;31.00
65408;DHT22;52017;51.230;-2.322;2022-07-29T09:37:56;34.40;31.30
65408;DHT22;52017;51.230;-2.322;2022-07-29T09:41:49;34.40;31.20
65408;DHT22;52017;51.230;-2.322;2022-07-29T09:45:36;34.60;29.70
65408;DHT22;52017;51.230;-2.322;2022-07-29T09:49:19;35.00;30.50
65408;DHT22;52017;51.230;-2.322;2022-07-29T09:53:04;35.40;30.10
65408;DHT22;52017;51.230;-2.322;2022-07-29T09:56:50;35.90;29.50
65408;DHT22;52017;51.230;-2.322;2022-07-29T10:00:42;36.10;28.20
65408;DHT22;52017;51.230;-2.322;2022-07-29T10:04:40;35.70;26.90
65408;DHT22;52017;51.230;-2.322;2022-07-29T10:08:26;35.50;25.30
65408;DHT22;52017;51.230;-2.322;2022-07-29T10:12:11;35.40;27.10
65408;DHT22;52017;51.230;-2.322;2022-07-29T10:15:57;35.50;27.20
65408;DHT22;52017;51.230;-2.322;2022-07-29T10:19:41;35.90;26.80
65408;DHT22;52017;51.230;-2.322;2022-07-29T10:23:28;36.50;26.30
65408;DHT22;52017;51.230;-2.322;2022-07-29T10:27:27;36.60;25.50
65408;DHT22;52017;51.230;-2.322;2022-07-29T10:31:29;36.80;25.60
65408;DHT22;52017;51.230;-2.322;2022-07-29T10:36:26;37.50;24.50
65408;DHT22;52017;51.230;-2.322;2022-07-29T10:40:08;38.10;23.40
65408;DHT22;52017;51.230;-2.322;2022-07-29T10:44:22;38.60;23.90
65408;DHT22;52017;51.230;-2.322;2022-07-29T10:48:05;39.00;23.00
65408;DHT22;52017;51.230;-2.322;2022-07-29T10:51:57;39.10;23.70
65408;DHT22;52017;51.230;-2.322;2022-07-29T10:55:42;39.40;22.40
65408;DHT22;52017;51.230;-2.322;2022-07-29T10:59:28;39.80;23.10
65408;DHT22;52017;51.230;-2.322;2022-07-29T11:03:48;40.30;22.90
65408;DHT22;52017;51.230;-2.322;2022-07-29T11:07:36;40.90;20.60
65408;DHT22;52017;51.230;-2.322;2022-07-29T11:15:12;42.00;21.40
65408;DHT22;52017;51.230;-2.322;2022-07-29T11:22:54;42.10;19.70
65408;DHT22;52017;51.230;-2.322;2022-07-29T11:26:36;42.20;20.80
65408;DHT22;52017;51.230;-2.322;2022-07-29T11:30:20;42.30;20.20
65408;DHT22;52017;51.230;-2.322;2022-07-29T11:34:27;41.80;20.40
65408;DHT22;52017;51.230;-2.322;2022-07-29T11:38:27;42.10;19.30
65408;DHT22;52017;51.230;-2.322;2022-07-29T11:46:14;43.10;18.60
65408;DHT22;52017;51.230;-2.322;2022-07-29T11:50:08;43.70;19.00
65408;DHT22;52017;51.230;-2.322;2022-07-29T11:53:51;44.30;18.30
65408;DHT22;52017;51.230;-2.322;2022-07-29T11:57:33;44.50;18.00
65408;DHT22;52017;51.230;-2.322;2022-07-29T12:01:17;44.30;18.80
65408;DHT22;52017;51.230;-2.322;2022-07-29T12:05:00;44.60;17.90
65408;DHT22;52017;51.230;-2.322;2022-07-29T12:08:51;44.90;17.60
65408;DHT22;52017;51.230;-2.322;2022-07-29T12:12:34;45.60;17.10
65408;DHT22;52017;51.230;-2.322;2022-07-29T12:16:19;46.20;16.80
65408;DHT22;52017;51.230;-2.322;2022-07-29T12:20:08;46.70;16.40
65408;DHT22;52017;51.230;-2.322;2022-07-29T12:23:53;47.10;16.50
65408;DHT22;52017;51.230;-2.322;2022-07-29T12:28:00;47.30;16.30
65408;DHT22;52017;51.230;-2.322;2022-07-29T12:31:44;47.40;15.30
65408;DHT22;52017;51.230;-2.322;2022-07-29T12:35:27;47.60;16.00
65408;DHT22;52017;51.230;-2.322;2022-07-29T12:39:10;47.60;15.90
65408;DHT22;52017;51.230;-2.322;2022-07-29T12:43:15;47.50;15.70
65408;DHT22;52017;51.230;-2.322;2022-07-29T12:47:04;46.50;14.90
65408;DHT22;52017;51.230;-2.322;2022-07-29T12:50:56;45.70;15.30
65408;DHT22;52017;51.230;-2.322;2022-07-29T12:54:46;45.60;15.50
65408;DHT22;52017;51.230;-2.322;2022-07-29T12:58:41;45.70;15.40
65408;DHT22;52017;51.230;-2.322;2022-07-29T13:02:26;45.80;14.40
65408;DHT22;52017;51.230;-2.322;2022-07-29T13:10:20;45.30;15.60
65408;DHT22;52017;51.230;-2.322;2022-07-29T13:14:09;45.30;15.50
65408;DHT22;52017;51.230;-2.322;2022-07-29T13:17:52;45.20;15.30
65408;DHT22;52017;51.230;-2.322;2022-07-29T13:21:34;44.90;15.40
65408;DHT22;52017;51.230;-2.322;2022-07-29T13:25:25;44.80;15.60
65408;DHT22;52017;51.230;-2.322;2022-07-29T13:29:07;44.90;14.70
65408;DHT22;52017;51.230;-2.322;2022-07-29T13:32:50;44.80;15.40
65408;DHT22;52017;51.230;-2.322;2022-07-29T13:36:33;44.50;15.70
65408;DHT22;52017;51.230;-2.322;2022-07-29T13:40:31;43.70;15.80
65408;DHT22;52017;51.230;-2.322;2022-07-29T13:44:17;42.90;15.50
65408;DHT22;52017;51.230;-2.322;2022-07-29T13:48:03;42.90;15.90
65408;DHT22;52017;51.230;-2.322;2022-07-29T13:51:49;42.50;15.80
65408;DHT22;52017;51.230;-2.322;2022-07-29T13:55:31;40.60;16.70
65408;DHT22;52017;51.230;-2.322;2022-07-29T13:59:14;38.90;17.50
65408;DHT22;52017;51.230;-2.322;2022-07-29T14:02:57;37.50;18.40
65408;DHT22;52017;51.230;-2.322;2022-07-29T14:06:42;36.20;19.20
65408;DHT22;52017;51.230;-2.322;2022-07-29T14:10:31;35.30;20.00
65408;DHT22;52017;51.230;-2.322;2022-07-29T14:14:17;34.40;20.60
65408;DHT22;52017;51.230;-2.322;2022-07-29T14:18:23;33.70;21.30
65408;DHT22;52017;51.230;-2.322;2022-07-29T14:22:07;33.20;21.90
65408;DHT22;52017;51.230;-2.322;2022-07-29T14:25:53;32.90;22.00
65408;DHT22;52017;51.230;-2.322;2022-07-29T14:29:37;32.60;22.40
65408;DHT22;52017;51.230;-2.322;2022-07-29T14:33:21;32.40;22.60
65408;DHT22;52017;51.230;-2.322;2022-07-29T14:37:04;32.20;23.00
65408;DHT22;52017;51.230;-2.322;2022-07-29T14:40:47;32.10;22.70
65408;DHT22;52017;51.230;-2.322;2022-07-29T14:44:31;32.00;23.30
65408;DHT22;52017;51.230;-2.322;2022-07-29T14:48:14;31.90;23.50
65408;DHT22;52017;51.230;-2.322;2022-07-29T14:51:56;31.80;23.70
65408;DHT22;52017;51.230;-2.322;2022-07-29T14:55:39;31.80;23.80
65408;DHT22;52017;51.230;-2.322;2022-07-29T14:59:22;31.70;24.00
65408;DHT22;52017;51.230;-2.322;2022-07-29T15:03:05;31.60;24.20
65408;DHT22;52017;51.230;-2.322;2022-07-29T15:06:52;31.50;24.40
65408;DHT22;52017;51.230;-2.322;2022-07-29T15:10:34;31.60;24.40
65408;DHT22;52017;51.230;-2.322;2022-07-29T15:14:17;31.60;24.40
65408;DHT22;52017;51.230;-2.322;2022-07-29T15:18:00;31.80;24.40
65408;DHT22;52017;51.230;-2.322;2022-07-29T15:21:42;31.90;24.50
65408;DHT22;52017;51.230;-2.322;2022-07-29T15:25:29;32.00;24.50
65408;DHT22;52017;51.230;-2.322;2022-07-29T15:29:12;31.90;24.50
65408;DHT22;52017;51.230;-2.322;2022-07-29T15:32:55;31.80;24.60
65408;DHT22;52017;51.230;-2.322;2022-07-29T15:36:39;31.50;24.80
65408;DHT22;52017;51.230;-2.322;2022-07-29T15:40:33;31.30;25.00
65408;DHT22;52017;51.230;-2.322;2022-07-29T15:44:15;31.20;25.30
65408;DHT22;52017;51.230;-2.322;2022-07-29T15:47:57;31.00;25.50
65408;DHT22;52017;51.230;-2.322;2022-07-29T15:51:42;30.80;25.70
65408;DHT22;52017;51.230;-2.322;2022-07-29T15:55:24;30.70;25.80
65408;DHT22;52017;51.230;-2.322;2022-07-29T15:59:06;30.60;26.10
65408;DHT22;52017;51.230;-2.322;2022-07-29T16:02:48;30.40;26.70
65408;DHT22;52017;51.230;-2.322;2022-07-29T16:06:31;30.20;27.20
65408;DHT22;52017;51.230;-2.322;2022-07-29T16:10:13;30.10;27.60
65408;DHT22;52017;51.230;-2.322;2022-07-29T16:13:55;29.90;28.00
65408;DHT22;52017;51.230;-2.322;2022-07-29T16:17:38;29.80;28.40
65408;DHT22;52017;51.230;-2.322;2022-07-29T16:21:23;29.70;28.50
65408;DHT22;52017;51.230;-2.322;2022-07-29T16:25:08;29.60;29.70
65408;DHT22;52017;51.230;-2.322;2022-07-29T16:28:50;29.30;30.10
65408;DHT22;52017;51.230;-2.322;2022-07-29T16:32:33;29.30;30.40
65408;DHT22;52017;51.230;-2.322;2022-07-29T16:36:18;29.10;30.70
65408;DHT22;52017;51.230;-2.322;2022-07-29T16:52:26;29.00;32.00
65408;DHT22;52017;51.230;-2.322;2022-07-29T16:56:37;29.10;31.40
65408;DHT22;52017;51.230;-2.322;2022-07-29T17:00:22;29.10;31.40
65408;DHT22;52017;51.230;-2.322;2022-07-29T17:04:06;29.10;31.40
65408;DHT22;52017;51.230;-2.322;2022-07-29T17:07:49;29.10;31.40
65408;DHT22;52017;51.230;-2.322;2022-07-29T17:11:31;29.10;31.50
65408;DHT22;52017;51.230;-2.322;2022-07-29T17:15:34;29.00;31.50
65408;DHT22;52017;51.230;-2.322;2022-07-29T17:19:17;29.10;31.50
65408;DHT22;52017;51.230;-2.322;2022-07-29T17:23:02;29.00;31.80
65408;DHT22;52017;51.230;-2.322;2022-07-29T17:26:44;28.90;31.50
65408;DHT22;52017;51.230;-2.322;2022-07-29T17:30:28;28.80;32.00
65408;DHT22;52017;51.230;-2.322;2022-07-29T17:34:15;28.70;32.40
65408;DHT22;52017;51.230;-2.322;2022-07-29T17:38:00;28.70;32.60
65408;DHT22;52017;51.230;-2.322;2022-07-29T17:41:43;28.60;32.90
65408;DHT22;52017;51.230;-2.322;2022-07-29T17:45:27;28.60;33.20
65408;DHT22;52017;51.230;-2.322;2022-07-29T17:49:51;28.40;33.40
65408;DHT22;52017;51.230;-2.322;2022-07-29T17:53:34;28.20;34.00
65408;DHT22;52017;51.230;-2.322;2022-07-29T17:57:17;28.00;33.90
65408;DHT22;52017;51.230;-2.322;2022-07-29T18:01:00;27.80;34.00
65408;DHT22;52017;51.230;-2.322;2022-07-29T18:04:42;27.60;34.10
65408;DHT22;52017;51.230;-2.322;2022-07-29T18:08:31;27.60;34.40
65408;DHT22;52017;51.230;-2.322;2022-07-29T18:12:16;27.40;34.40
65408;DHT22;52017;51.230;-2.322;2022-07-29T18:15:58;27.30;34.60
65408;DHT22;52017;51.230;-2.322;2022-07-29T18:19:43;27.10;34.80
65408;DHT22;52017;51.230;-2.322;2022-07-29T18:23:26;27.00;35.00
65408;DHT22;52017;51.230;-2.322;2022-07-29T18:27:10;26.80;35.00
65408;DHT22;52017;51.230;-2.322;2022-07-29T18:30:53;26.70;35.00
65408;DHT22;52017;51.230;-2.322;2022-07-29T18:34:40;26.60;35.10
65408;DHT22;52017;51.230;-2.322;2022-07-29T18:38:22;26.50;35.40
65408;DHT22;52017;51.230;-2.322;2022-07-29T18:42:04;26.40;35.50
65408;DHT22;52017;51.230;-2.322;2022-07-29T18:45:47;26.30;35.60
65408;DHT22;52017;51.230;-2.322;2022-07-29T18:49:32;26.30;35.50
65408;DHT22;52017;51.230;-2.322;2022-07-29T18:53:15;26.20;35.50
65408;DHT22;52017;51.230;-2.322;2022-07-29T18:56:57;26.20;35.60
65408;DHT22;52017;51.230;-2.322;2022-07-29T19:01:01;26.30;35.80
65408;DHT22;52017;51.230;-2.322;2022-07-29T19:04:43;26.20;35.90
65408;DHT22;52017;51.230;-2.322;2022-07-29T19:08:25;26.10;35.90
65408;DHT22;52017;51.230;-2.322;2022-07-29T19:12:07;26.10;36.00
65408;DHT22;52017;51.230;-2.322;2022-07-29T19:15:49;26.00;36.00
65408;DHT22;52017;51.230;-2.322;2022-07-29T19:19:32;25.90;36.30
65408;DHT22;52017;51.230;-2.322;2022-07-29T19:23:14;25.70;36.20
65408;DHT22;52017;51.230;-2.322;2022-07-29T19:26:56;25.60;36.20
65408;DHT22;52017;51.230;-2.322;2022-07-29T19:30:42;25.60;36.30
65408;DHT22;52017;51.230;-2.322;2022-07-29T19:34:24;25.50;36.40
65408;DHT22;52017;51.230;-2.322;2022-07-29T19:38:06;25.40;36.60
65408;DHT22;52017;51.230;-2.322;2022-07-29T19:41:50;25.30;36.90
65408;DHT22;52017;51.230;-2.322;2022-07-29T19:45:44;25.30;37.20
65408;DHT22;52017;51.230;-2.322;2022-07-29T19:49:30;25.20;37.60
65408;DHT22;52017;51.230;-2.322;2022-07-29T19:53:17;25.10;38.00
65408;DHT22;52017;51.230;-2.322;2022-07-29T19:57:21;25.10;38.30
65408;DHT22;52017;51.230;-2.322;2022-07-29T20:01:06;25.00;38.40
65408;DHT22;52017;51.230;-2.322;2022-07-29T20:04:51;24.90;39.10
65408;DHT22;52017;51.230;-2.322;2022-07-29T20:08:35;24.80;39.20
65408;DHT22;52017;51.230;-2.322;2022-07-29T20:12:52;24.70;39.60
65408;DHT22;52017;51.230;-2.322;2022-07-29T20:16:36;24.50;39.90
65408;DHT22;52017;51.230;-2.322;2022-07-29T20:20:32;24.40;40.20
65408;DHT22;52017;51.230;-2.322;2022-07-29T20:24:20;24.20;40.40
65408;DHT22;52017;51.230;-2.322;2022-07-29T20:28:04;24.10;40.90
65408;DHT22;52017;51.230;-2.322;2022-07-29T20:31:46;24.00;41.10
65408;DHT22;52017;51.230;-2.322;2022-07-29T20:35:38;23.90;41.20
65408;DHT22;52017;51.230;-2.322;2022-07-29T20:39:22;23.80;41.50
65408;DHT22;52017;51.230;-2.322;2022-07-29T20:43:07;23.70;41.70
65408;DHT22;52017;51.230;-2.322;2022-07-29T20:46:50;23.60;42.20
65408;DHT22;52017;51.230;-2.322;2022-07-29T20:50:32;23.60;42.50
65408;DHT22;52017;51.230;-2.322;2022-07-29T20:54:15;23.40;42.70
65408;DHT22;52017;51.230;-2.322;2022-07-29T20:57:58;23.30;43.00
65408;DHT22;52017;51.230;-2.322;2022-07-29T21:01:40;23.20;43.40
65408;DHT22;52017;51.230;-2.322;2022-07-29T21:05:23;23.10;43.80
65408;DHT22;52017;51.230;-2.322;2022-07-29T21:09:05;23.00;44.40
65408;DHT22;52017;51.230;-2.322;2022-07-29T21:12:47;23.00;44.70
65408;DHT22;52017;51.230;-2.322;2022-07-29T21:16:30;22.80;45.20
65408;DHT22;52017;51.230;-2.322;2022-07-29T21:20:16;22.70;45.50
65408;DHT22;52017;51.230;-2.322;2022-07-29T21:23:59;22.60;45.60
65408;DHT22;52017;51.230;-2.322;2022-07-29T21:27:44;22.60;45.80
65408;DHT22;52017;51.230;-2.322;2022-07-29T21:31:45;22.50;46.00
65408;DHT22;52017;51.230;-2.322;2022-07-29T21:35:35;22.40;46.30
65408;DHT22;52017;51.230;-2.322;2022-07-29T21:39:37;22.30;46.60
65408;DHT22;52017;51.230;-2.322;2022-07-29T21:43:22;22.20;46.50
65408;DHT22;52017;51.230;-2.322;2022-07-29T21:47:08;22.10;47.00
65408;DHT22;52017;51.230;-2.322;2022-07-29T21:50:54;22.10;47.10
65408;DHT22;52017;51.230;-2.322;2022-07-29T21:54:40;22.10;47.50
65408;DHT22;52017;51.230;-2.322;2022-07-29T21:58:23;22.00;47.00
65408;DHT22;52017;51.230;-2.322;2022-07-29T22:02:06;22.00;47.10
65408;DHT22;52017;51.230;-2.322;2022-07-29T22:05:51;22.00;47.30
65408;DHT22;52017;51.230;-2.322;2022-07-29T22:09:34;21.80;47.50
65408;DHT22;52017;51.230;-2.322;2022-07-29T22:13:16;21.80;47.70
65408;DHT22;52017;51.230;-2.322;2022-07-29T22:17:02;21.80;47.80
65408;DHT22;52017;51.230;-2.322;2022-07-29T22:20:45;21.70;48.00
65408;DHT22;52017;51.230;-2.322;2022-07-29T22:24:28;21.60;48.00
65408;DHT22;52017;51.230;-2.322;2022-07-29T22:28:10;21.60;48.20
65408;DHT22;52017;51.230;-2.322;2022-07-29T22:31:52;21.60;48.20
65408;DHT22;52017;51.230;-2.322;2022-07-29T22:35:34;21.50;48.50
65408;DHT22;52017;51.230;-2.322;2022-07-29T22:39:16;21.50;48.80
65408;DHT22;52017;51.230;-2.322;2022-07-29T22:42:58;21.50;49.00
65408;DHT22;52017;51.230;-2.322;2022-07-29T22:46:43;21.30;49.30
65408;DHT22;52017;51.230;-2.322;2022-07-29T22:50:26;21.30;49.50
65408;DHT22;52017;51.230;-2.322;2022-07-29T22:54:09;21.20;49.80
65408;DHT22;52017;51.230;-2.322;2022-07-29T22:57:51;21.20;49.90
65408;DHT22;52017;51.230;-2.322;2022-07-29T23:01:34;21.10;50.10
65408;DHT22;52017;51.230;-2.322;2022-07-29T23:05:18;21.10;50.40
65408;DHT22;52017;51.230;-2.322;2022-07-29T23:09:02;21.00;50.60
65408;DHT22;52017;51.230;-2.322;2022-07-29T23:12:45;21.00;50.90
65408;DHT22;52017;51.230;-2.322;2022-07-29T23:16:27;21.00;50.90
65408;DHT22;52017;51.230;-2.322;2022-07-29T23:20:10;20.90;51.00
65408;DHT22;52017;51.230;-2.322;2022-07-29T23:23:55;20.90;51.10
65408;DHT22;52017;51.230;-2.322;2022-07-29T23:27:37;20.80;51.00
65408;DHT22;52017;51.230;-2.322;2022-07-29T23:31:21;20.70;51.00
65408;DHT22;52017;51.230;-2.322;2022-07-29T23:35:07;20.70;51.00
65408;DHT22;52017;51.230;-2.322;2022-07-29T23:38:49;20.60;51.00
65408;DHT22;52017;51.230;-2.322;2022-07-29T23:42:31;20.60;50.80
65408;DHT22;52017;51.230;-2.322;2022-07-29T23:46:14;20.50;50.70
65408;DHT22;52017;51.230;-2.322;2022-07-29T23:49:56;20.50;50.60
65408;DHT22;52017;51.230;-2.322;2022-07-29T23:53:39;20.50;50.50
65408;DHT22;52017;51.230;-2.322;2022-07-29T23:57:34;20.40;50.70
